Estevan Point, Canada
Current Conditions -  °F | °C
As of 7:00 PM on Wednesday 26 Nov 2014 (Local Time) from CYBL Reporting Station
Light Rain Light Rain  
Wind Chill:   Ceiling: 300
Heat Index:   Visibility: 0.62mi
Dew Point:   Wind: 2mph
Humidity: 93%   Direction: NA
Pressure: 29.74"   Gusts: NA
Location:  49.38°N, 126.54°W
Report Text: CYBL 270300Z VRB02KT 5/8SM R12/P6000FT/N -RA BR OVC003 07/06 A2974 RMK SF8 SLP073
Loading
Personal Weather Stations






























Interactive Weather Map New forecast layout! Learn more

10-Day Weather Forecast

Advertisements
Track Severe Weather on mobile